Time;durP1;ratioP1;P1;durP2;ratioP2;P2;SDS_P1;SDS_P2;PMS_P1;PMS_P2;Temp;Humidity;BMP_temperature;BMP_pressure;BME280_temperature;BME280_humidity;BME280_pressure;Samples;Min_cycle;Max_cycle;Signal;HPM_P1;HPM_P2
2024/02/07 00:01:41;;;;;;;20.55;4.10;;;22.60;40.80;;;;;;5136494;27;20031;-34
2024/02/07 00:04:07;;;;;;;13.07;4.22;;;22.60;40.90;;;;;;5137187;27;20031;-36
2024/02/07 00:06:34;;;;;;;12.43;3.63;;;22.60;40.80;;;;;;5135947;27;20416;-38
2024/02/07 00:09:00;;;;;;;9.40;3.50;;;22.50;40.80;;;;;;5137762;27;20049;-35
2024/02/07 00:11:26;;;;;;;6.78;3.25;;;22.60;41.00;;;;;;5135501;27;20065;-33
2024/02/07 00:13:52;;;;;;;6.97;3.28;;;22.60;41.00;;;;;;5136760;27;20026;-35
2024/02/07 00:16:19;;;;;;;6.47;3.80;;;22.60;40.90;;;;;;5134402;27;20038;-36
2024/02/07 00:18:46;;;;;;;7.03;3.50;;;22.60;40.90;;;;;;5136850;27;21177;-36
2024/02/07 00:21:12;;;;;;;6.90;3.58;;;22.60;40.80;;;;;;5137436;27;20791;-40
2024/02/07 00:23:38;;;;;;;5.03;3.15;;;22.60;40.90;;;;;;5138445;27;20023;-37
2024/02/07 00:26:04;;;;;;;6.47;3.40;;;22.50;40.80;;;;;;5133790;27;20057;-35
2024/02/07 00:28:30;;;;;;;5.60;3.80;;;22.50;40.90;;;;;;5134077;27;20049;-37
2024/02/07 00:30:56;;;;;;;6.20;3.35;;;22.60;41.00;;;;;;5132474;27;20028;-36
2024/02/07 00:33:22;;;;;;;4.95;3.17;;;22.60;41.10;;;;;;5130734;27;20027;-33
2024/02/07 00:35:49;;;;;;;5.75;3.25;;;22.60;41.00;;;;;;5128949;27;20028;-34
2024/02/07 00:38:15;;;;;;;5.40;3.30;;;22.50;40.90;;;;;;5135329;27;20054;-33
2024/02/07 00:40:41;;;;;;;6.25;3.70;;;22.50;40.90;;;;;;5132888;27;20015;-34
2024/02/07 00:43:07;;;;;;;5.53;3.40;;;22.50;40.90;;;;;;5133161;27;20027;-35
2024/02/07 00:45:34;;;;;;;6.18;3.70;;;22.50;41.00;;;;;;5129222;27;20047;-36
2024/02/07 00:48:00;;;;;;;;;;;22.60;41.10;;;;;;5115256;27;20031;-37
2024/02/07 00:50:26;;;;;;;6.00;3.78;;;22.50;41.10;;;;;;5132443;27;19953;-36
2024/02/07 00:52:52;;;;;;;6.22;3.58;;;22.50;41.10;;;;;;5133665;27;20048;-32
2024/02/07 00:55:18;;;;;;;6.60;3.90;;;22.50;41.10;;;;;;5137803;27;20020;-32
2024/02/07 00:57:46;;;;;;;5.38;3.25;;;22.50;41.20;;;;;;5132197;27;20047;-36
2024/02/07 01:00:13;;;;;;;5.68;3.38;;;22.40;41.10;;;;;;5131881;27;20023;-36
2024/02/07 01:02:41;;;;;;;5.75;3.38;;;22.50;41.30;;;;;;5138229;27;20095;-36
2024/02/07 01:05:11;;;;;;;5.28;3.20;;;22.50;41.30;;;;;;5134577;27;20027;-36
2024/02/07 01:07:37;;;;;;;5.63;3.45;;;22.50;41.40;;;;;;5114875;28;20032;-36
2024/02/07 01:10:04;;;;;;;4.18;3.40;;;22.50;41.40;;;;;;5133550;27;20039;-32
2024/02/07 01:12:31;;;;;;;4.45;3.00;;;22.50;41.40;;;;;;5141557;27;20035;-38
2024/02/07 01:14:57;;;;;;;5.90;3.65;;;22.40;41.20;;;;;;5139003;27;20031;-38
2024/02/07 01:17:24;;;;;;;5.40;2.85;;;22.40;41.40;;;;;;5133510;27;20031;-35
2024/02/07 01:19:51;;;;;;;5.13;2.75;;;22.40;41.30;;;;;;5127664;27;20045;-37
2024/02/07 01:22:18;;;;;;;3.90;3.08;;;22.40;41.40;;;;;;5135137;27;20047;-38
2024/02/07 01:24:44;;;;;;;4.70;3.05;;;22.50;41.40;;;;;;5135832;27;20099;-39
2024/02/07 01:27:10;;;;;;;4.25;2.88;;;22.40;41.40;;;;;;5135456;27;20110;-33
2024/02/07 01:29:37;;;;;;;5.10;3.20;;;22.40;41.40;;;;;;5132464;27;20103;-35
2024/02/07 01:32:07;;;;;;;6.32;3.03;;;22.40;41.30;;;;;;5134338;27;20039;-33
2024/02/07 01:34:33;;;;;;;5.07;2.90;;;22.40;41.40;;;;;;5135137;27;20091;-37
2024/02/07 01:36:59;;;;;;;5.97;3.03;;;22.30;41.40;;;;;;5133968;27;20035;-35
2024/02/07 01:39:26;;;;;;;4.85;3.28;;;22.40;41.50;;;;;;5134340;27;20035;-34
2024/02/07 01:41:59;;;;;;;5.88;3.13;;;22.40;42.10;;;;;;5134283;27;20031;-38
2024/02/07 01:44:26;;;;;;;5.53;3.03;;;22.40;41.60;;;;;;5133850;27;20488;-31
2024/02/07 01:47:14;;;;;;;5.13;2.78;;;22.40;41.60;;;;;;5115295;27;20027;-36
2024/02/07 01:49:42;;;;;;;5.40;2.80;;;22.30;42.00;;;;;;5118082;27;20031;-37
2024/02/07 01:52:08;;;;;;;4.55;2.60;;;22.30;41.60;;;;;;5137921;27;20050;-36
2024/02/07 01:54:34;;;;;;;4.38;2.88;;;22.30;41.60;;;;;;5132584;27;20036;-35
2024/02/07 01:57:01;;;;;;;3.88;2.83;;;22.40;41.60;;;;;;5126124;27;20040;-35
2024/02/07 01:59:27;;;;;;;3.60;2.70;;;22.40;41.60;;;;;;5116093;27;20032;-35
2024/02/07 02:01:53;;;;;;;3.90;2.42;;;22.30;41.60;;;;;;5138201;27;20031;-37
2024/02/07 02:04:20;;;;;;;3.77;2.50;;;22.30;41.50;;;;;;5133897;27;20019;-35
2024/02/07 02:06:46;;;;;;;5.67;2.50;;;22.30;41.50;;;;;;5144817;27;20028;-37
2024/02/07 02:09:13;;;;;;;4.32;2.38;;;22.30;42.00;;;;;;5130131;27;20023;-36
2024/02/07 02:11:40;;;;;;;3.40;2.22;;;22.30;41.50;;;;;;5148300;27;20112;-34
2024/02/07 02:14:07;;;;;;;3.85;2.63;;;22.30;41.60;;;;;;5144043;27;20036;-37
2024/02/07 02:16:35;;;;;;;5.03;2.65;;;22.30;41.60;;;;;;5114146;27;20066;-37
2024/02/07 02:19:02;;;;;;;5.00;2.40;;;22.30;41.60;;;;;;5135272;27;20027;-33
2024/02/07 02:21:31;;;;;;;4.30;2.47;;;22.20;41.50;;;;;;5127533;27;20034;-33
2024/02/07 02:24:08;;;;;;;4.07;2.53;;;22.20;41.40;;;;;;5137906;27;20023;-37
2024/02/07 02:27:10;;;;;;;2.78;1.83;;;22.20;41.50;;;;;;5135915;27;20055;-38
2024/02/07 02:29:37;;;;;;;3.35;2.00;;;22.30;41.60;;;;;;5139507;27;20070;-37
2024/02/07 02:32:04;;;;;;;2.60;1.73;;;22.30;41.70;;;;;;5134429;27;20093;-34
2024/02/07 02:34:30;;;;;;;3.67;2.17;;;22.20;41.60;;;;;;5110173;27;22032;-33
2024/02/07 02:36:58;;;;;;;3.22;1.98;;;22.20;41.60;;;;;;5139457;27;20027;-34
2024/02/07 02:39:28;;;;;;;2.78;1.83;;;22.20;41.50;;;;;;5136593;27;20023;-33
2024/02/07 02:41:56;;;;;;;2.28;1.40;;;22.20;41.60;;;;;;5115932;27;20047;-31
2024/02/07 02:44:23;;;;;;;2.03;1.45;;;22.20;41.60;;;;;;5135079;27;20031;-32
2024/02/07 02:46:50;;;;;;;2.53;1.73;;;22.30;41.70;;;;;;5139344;27;20031;-33
2024/02/07 02:49:16;;;;;;;2.50;1.60;;;22.20;41.60;;;;;;5129530;27;20033;-36
2024/02/07 02:51:42;;;;;;;2.90;1.80;;;22.20;41.70;;;;;;5135851;27;20043;-35
2024/02/07 02:54:08;;;;;;;3.25;1.75;;;22.10;41.70;;;;;;5140091;27;20047;-31
2024/02/07 02:56:36;;;;;;;2.90;1.83;;;22.10;41.60;;;;;;5140213;27;20027;-33
2024/02/07 02:59:05;;;;;;;2.38;1.75;;;22.10;41.60;;;;;;5139080;27;20023;-33
2024/02/07 03:01:35;;;;;;;1.85;1.30;;;22.20;41.70;;;;;;5143978;27;20055;-34
2024/02/07 03:04:03;;;;;;;1.85;1.40;;;22.20;41.70;;;;;;5139133;27;20027;-32
2024/02/07 03:06:37;;;;;;;2.10;1.50;;;22.20;41.70;;;;;;5138665;27;20023;-36
2024/02/07 03:09:19;;;;;;;2.58;1.52;;;22.20;41.70;;;;;;5124849;27;20114;-39
2024/02/07 03:11:45;;;;;;;2.03;1.40;;;22.10;41.70;;;;;;5136507;27;20036;-37
2024/02/07 03:14:12;;;;;;;2.13;1.60;;;22.10;41.70;;;;;;5140390;27;20023;-36
2024/02/07 03:16:38;;;;;;;2.22;1.70;;;22.20;41.70;;;;;;5138598;27;20283;-36
2024/02/07 03:19:04;;;;;;;2.53;1.58;;;22.20;41.70;;;;;;5148232;27;20554;-35
2024/02/07 03:21:30;;;;;;;2.10;1.20;;;22.20;41.70;;;;;;5145792;27;20030;-36
2024/02/07 03:23:56;;;;;;;1.70;1.50;;;22.10;41.70;;;;;;5146889;27;20174;-33
2024/02/07 03:26:23;;;;;;;2.58;1.50;;;22.10;41.70;;;;;;5146099;27;20027;-36
2024/02/07 03:28:51;;;;;;;1.60;1.33;;;22.10;41.70;;;;;;5146140;27;20018;-37
2024/02/07 03:31:18;;;;;;;2.20;1.50;;;22.10;41.70;;;;;;5120444;27;20358;-36
2024/02/07 03:33:44;;;;;;;6.03;1.55;;;22.20;41.70;;;;;;5146232;27;20038;-34
2024/02/07 03:36:10;;;;;;;3.53;1.50;;;22.20;41.70;;;;;;5141343;27;20031;-36
2024/02/07 03:38:37;;;;;;;7.18;1.63;;;22.20;41.90;;;;;;5142298;27;20035;-34
2024/02/07 03:41:05;;;;;;;3.25;1.20;;;22.10;41.90;;;;;;5137269;27;20570;-35
2024/02/07 03:43:33;;;;;;;2.70;1.30;;;22.00;41.90;;;;;;5142726;27;20035;-36
2024/02/07 03:46:05;;;;;;;2.03;1.20;;;22.00;41.90;;;;;;5139632;27;20023;-34
2024/02/07 03:48:33;;;;;;;1.65;1.10;;;22.10;41.90;;;;;;5140735;27;20114;-34
2024/02/07 03:50:59;;;;;;;1.75;1.10;;;22.10;42.00;;;;;;5139437;27;20030;-31
2024/02/07 03:53:26;;;;;;;2.25;1.50;;;22.10;42.00;;;;;;5137306;27;20043;-36
2024/02/07 03:55:52;;;;;;;3.78;1.33;;;22.10;42.10;;;;;;5144212;27;20027;-34
2024/02/07 03:58:19;;;;;;;1.70;1.20;;;22.00;42.10;;;;;;5140871;27;20081;-37
2024/02/07 04:00:47;;;;;;;3.90;1.02;;;22.00;42.00;;;;;;5136359;27;20036;-33
2024/02/07 04:03:13;;;;;;;1.58;1.05;;;22.00;42.00;;;;;;5130989;27;20027;-34
2024/02/07 04:05:39;;;;;;;1.63;1.17;;;22.10;42.00;;;;;;5130577;27;20098;-33
2024/02/07 04:08:07;;;;;;;1.33;1.03;;;22.10;42.00;;;;;;5131554;27;20035;-34
2024/02/07 04:10:41;;;;;;;1.63;1.05;;;22.00;42.00;;;;;;5138167;27;20283;-36
2024/02/07 05:15:58;;;;;;;1.60;1.10;;;21.80;42.10;;;;;;5134772;27;20066;-32
2024/02/07 05:18:25;;;;;;;1.88;1.10;;;21.80;42.10;;;;;;5135204;27;20031;-33
2024/02/07 05:20:51;;;;;;;1.23;0.90;;;21.80;42.10;;;;;;5134577;27;20115;-33
2024/02/07 05:23:19;;;;;;;1.58;1.15;;;21.90;42.10;;;;;;5133961;27;20057;-33
2024/02/07 05:25:46;;;;;;;1.85;1.00;;;21.80;42.00;;;;;;5135151;27;20035;-38
2024/02/07 05:28:15;;;;;;;1.88;1.20;;;21.80;42.10;;;;;;5130920;27;20769;-33
2024/02/07 05:30:41;;;;;;;1.27;1.13;;;21.70;42.10;;;;;;5132540;27;20035;-34
2024/02/07 05:33:08;;;;;;;1.73;1.30;;;21.70;42.00;;;;;;5130673;27;20043;-32
2024/02/07 05:35:34;;;;;;;3.22;1.05;;;21.80;42.10;;;;;;5135204;27;20030;-35
2024/02/07 05:38:02;;;;;;;1.38;1.15;;;21.80;42.10;;;;;;5135757;27;20031;-36
2024/02/07 05:40:28;;;;;;;2.22;1.30;;;21.80;42.00;;;;;;5138121;27;20023;-31
2024/02/07 05:42:54;;;;;;;1.95;1.48;;;21.80;42.10;;;;;;5140338;27;20035;-34
2024/02/07 05:45:20;;;;;;;1.73;1.35;;;21.70;42.00;;;;;;5137275;27;20058;-34
2024/02/07 05:47:46;;;;;;;2.40;1.38;;;21.70;42.10;;;;;;5136568;27;20031;-35
2024/02/07 05:50:15;;;;;;;1.50;1.23;;;21.70;42.00;;;;;;5129406;27;20678;-35
2024/02/07 05:52:41;;;;;;;1.55;1.20;;;21.80;42.00;;;;;;5130163;27;20510;-34
2024/02/07 05:55:07;;;;;;;1.60;1.30;;;21.80;42.10;;;;;;5134305;27;20027;-31
2024/02/07 05:57:33;;;;;;;1.58;1.23;;;21.80;42.00;;;;;;5132486;27;20131;-33
2024/02/07 06:00:08;;;;;;;1.95;1.33;;;21.70;42.00;;;;;;5132962;27;20035;-39
2024/02/07 06:02:35;;;;;;;2.10;1.15;;;21.70;42.00;;;;;;5131435;27;20042;-34
2024/02/07 06:05:05;;;;;;;1.73;1.07;;;21.70;42.00;;;;;;5136791;27;20067;-34
2024/02/07 06:07:33;;;;;;;2.20;1.35;;;21.70;42.00;;;;;;5131788;27;20031;-31
2024/02/07 06:09:59;;;;;;;1.88;1.52;;;21.80;42.00;;;;;;5115569;27;20023;-32
2024/02/07 06:12:26;;;;;;;2.50;1.40;;;21.70;42.00;;;;;;5132763;27;20050;-36
2024/02/07 06:14:52;;;;;;;1.75;1.30;;;21.70;42.00;;;;;;5133241;27;20367;-32
2024/02/07 06:17:18;;;;;;;2.20;1.55;;;21.70;42.00;;;;;;5135376;27;20031;-36
2024/02/07 06:19:45;;;;;;;2.10;1.40;;;21.70;42.00;;;;;;5142032;27;20058;-32
2024/02/07 06:22:14;;;;;;;2.40;1.73;;;21.70;42.00;;;;;;5138344;27;20019;-34
2024/02/07 06:24:40;;;;;;;1.52;1.40;;;21.80;42.60;;;;;;5141365;27;20035;-35
2024/02/07 06:27:06;;;;;;;1.40;1.20;;;21.70;41.90;;;;;;5140993;27;20102;-33
2024/02/07 06:29:32;;;;;;;2.45;1.60;;;21.70;42.00;;;;;;5137690;27;20016;-32
2024/02/07 06:31:59;;;;;;;2.42;1.60;;;21.70;42.10;;;;;;5144479;27;20711;-34
2024/02/07 06:34:25;;;;;;;5.32;1.67;;;21.70;42.00;;;;;;5140618;27;20041;-37
2024/02/07 06:36:52;;;;;;;3.28;1.70;;;21.70;42.00;;;;;;5140694;27;20066;-34
2024/02/07 06:39:18;;;;;;;6.00;1.70;;;21.80;42.00;;;;;;5139895;27;20634;-34
2024/02/07 06:41:44;;;;;;;3.97;1.58;;;21.70;41.90;;;;;;5132551;27;20038;-31
2024/02/07 06:44:10;;;;;;;3.50;1.70;;;21.70;42.00;;;;;;5138713;27;20027;-34
2024/02/07 06:46:43;;;;;;;2.65;1.52;;;21.70;42.10;;;;;;5138194;27;20103;-37
2024/02/07 06:49:09;;;;;;;2.80;1.60;;;21.70;42.00;;;;;;5140888;27;20051;-36
2024/02/07 06:51:35;;;;;;;2.53;1.45;;;21.80;42.00;;;;;;5138952;27;20515;-35
2024/02/07 06:54:01;;;;;;;2.22;1.58;;;21.70;41.90;;;;;;5120617;27;20055;-37
2024/02/07 06:56:27;;;;;;;2.22;1.52;;;21.70;41.90;;;;;;5136838;27;20019;-34
2024/02/07 06:58:53;;;;;;;2.20;1.50;;;21.70;41.90;;;;;;5143012;27;20039;-35
2024/02/07 07:01:20;;;;;;;1.67;1.48;;;21.70;41.90;;;;;;5142099;27;20737;-36
2024/02/07 07:03:50;;;;;;;3.93;2.23;;;21.70;41.90;;;;;;5123387;28;20372;-31
2024/02/07 07:06:16;;;;;;;3.42;2.05;;;21.70;41.90;;;;;;5138728;27;20030;-37
2024/02/07 07:08:44;;;;;;;3.37;1.70;;;21.80;42.00;;;;;;5140137;27;20040;-33
2024/02/07 07:11:10;;;;;;;2.70;1.60;;;21.70;41.90;;;;;;5140311;27;20110;-37
2024/02/07 07:13:36;;;;;;;3.07;1.70;;;21.70;42.00;;;;;;5140962;27;20062;-31
2024/02/07 07:16:03;;;;;;;1.45;1.10;;;21.70;42.00;;;;;;5142474;27;20030;-32
2024/02/07 07:18:29;;;;;;;2.47;1.63;;;21.70;42.00;;;;;;5138534;27;20039;-40
2024/02/07 07:20:55;;;;;;;3.40;1.58;;;21.70;41.90;;;;;;5135090;27;20024;-35
2024/02/07 07:23:21;;;;;;;2.10;1.70;;;21.70;41.90;;;;;;5140091;27;20023;-35
2024/02/07 07:25:48;;;;;;;2.97;1.75;;;21.70;41.80;;;;;;5116491;28;20036;-34
2024/02/07 07:28:14;;;;;;;2.22;1.60;;;21.70;41.80;;;;;;5139319;27;20027;-34
2024/02/07 07:30:40;;;;;;;3.72;1.80;;;21.60;41.90;;;;;;5139265;27;20039;-35
2024/02/07 07:33:07;;;;;;;2.10;1.70;;;21.70;42.10;;;;;;5140213;27;20121;-32
2024/02/07 07:35:33;;;;;;;2.65;1.90;;;21.70;42.00;;;;;;5136735;27;20028;-36
2024/02/07 07:38:03;;;;;;;2.50;1.85;;;21.70;42.00;;;;;;5130334;27;20031;-32
2024/02/07 07:40:30;;;;;;;2.63;1.88;;;21.70;41.90;;;;;;5136309;28;20548;-32
2024/02/07 07:42:56;;;;;;;2.50;1.98;;;21.70;42.00;;;;;;5134462;27;20035;-33
2024/02/07 07:45:43;;;;;;;2.97;1.95;;;21.60;42.00;;;;;;5133408;27;20035;-32
2024/02/07 07:48:09;;;;;;;4.50;1.85;;;21.60;42.00;;;;;;5082399;28;20047;-36
2024/02/07 07:50:35;;;;;;;2.38;1.90;;;21.70;42.00;;;;;;5076935;28;20088;-34
2024/02/07 07:53:01;;;;;;;3.17;2.30;;;21.70;41.90;;;;;;5077208;28;20048;-38
2024/02/07 07:55:27;;;;;;;5.30;2.38;;;21.70;41.90;;;;;;5079745;28;20024;-32
2024/02/07 07:57:53;;;;;;;2.25;1.70;;;21.70;42.00;;;;;;5078965;28;20418;-34
2024/02/07 08:00:20;;;;;;;2.95;1.90;;;21.60;42.00;;;;;;5082713;28;20180;-34
2024/02/07 08:02:46;;;;;;;2.50;2.20;;;21.60;42.00;;;;;;5078771;28;20095;-32
2024/02/07 08:05:12;;;;;;;3.88;2.20;;;21.70;42.00;;;;;;5079402;28;20036;-36
2024/02/07 08:07:38;;;;;;;3.25;2.28;;;21.70;42.00;;;;;;5081610;28;20037;-33
2024/02/07 08:10:04;;;;;;;2.80;2.28;;;21.70;42.10;;;;;;5081430;28;20636;-33
2024/02/07 08:12:31;;;;;;;2.75;2.08;;;21.70;42.10;;;;;;5078659;28;20055;-33
2024/02/07 08:14:57;;;;;;;3.15;1.98;;;21.60;42.10;;;;;;5084256;28;20025;-34
2024/02/07 08:17:23;;;;;;;3.88;2.38;;;21.60;42.10;;;;;;5084330;28;20105;-35
2024/02/07 08:19:49;;;;;;;3.28;2.05;;;21.70;42.10;;;;;;5081493;28;20044;-34
2024/02/07 08:22:15;;;;;;;3.03;2.40;;;21.70;42.00;;;;;;5080513;28;21053;-41
2024/02/07 08:24:41;;;;;;;3.00;2.20;;;21.70;41.90;;;;;;5099828;27;20046;-32
2024/02/07 08:27:07;;;;;;;3.47;2.22;;;21.70;42.00;;;;;;5138071;27;20030;-33
2024/02/07 08:29:33;;;;;;;3.90;2.50;;;21.60;41.90;;;;;;5139864;27;20057;-33
2024/02/07 08:32:00;;;;;;;3.35;2.30;;;21.60;42.00;;;;;;5136743;27;20080;-35
2024/02/07 08:34:26;;;;;;;3.20;2.47;;;21.70;42.00;;;;;;5128500;27;20416;-36
2024/02/07 08:36:52;;;;;;;3.30;2.30;;;21.70;41.90;;;;;;5138089;27;20024;-36
2024/02/07 08:39:19;;;;;;;3.13;2.00;;;21.70;41.90;;;;;;5138913;27;20023;-36
2024/02/07 08:41:45;;;;;;;3.22;2.47;;;21.70;42.10;;;;;;5137538;27;20027;-34
2024/02/07 08:44:11;;;;;;;3.47;2.78;;;21.60;42.00;;;;;;5133239;27;20027;-35
2024/02/07 08:46:37;;;;;;;4.53;2.53;;;21.60;41.90;;;;;;5135048;27;20080;-33
2024/02/07 08:49:03;;;;;;;3.35;2.38;;;21.60;41.90;;;;;;5142736;27;20023;-33
2024/02/07 08:51:29;;;;;;;3.40;2.60;;;21.70;41.90;;;;;;5134561;27;20038;-34
2024/02/07 08:53:55;;;;;;;6.82;2.50;;;21.70;41.90;;;;;;5139655;27;20050;-33
2024/02/07 08:56:23;;;;;;;3.97;2.42;;;21.70;41.90;;;;;;5131566;27;20049;-37
2024/02/07 08:58:49;;;;;;;4.15;2.80;;;21.60;42.00;;;;;;5133281;27;20050;-34
2024/02/07 09:01:17;;;;;;;4.22;3.17;;;21.60;42.00;;;;;;5134778;27;20031;-30
2024/02/07 09:03:43;;;;;;;3.60;2.47;;;21.60;41.90;;;;;;5139636;27;20077;-34
2024/02/07 09:06:10;;;;;;;4.28;3.00;;;21.70;41.90;;;;;;5139847;27;20030;-32
2024/02/07 09:08:36;;;;;;;4.15;2.83;;;21.60;41.80;;;;;;5153625;27;20027;-35
2024/02/07 09:11:02;;;;;;;3.60;2.80;;;21.60;41.80;;;;;;5138476;27;20031;-31
2024/02/07 09:13:28;;;;;;;4.38;2.90;;;21.60;41.90;;;;;;5137665;27;20134;-35
2024/02/07 09:15:55;;;;;;;3.47;2.40;;;21.60;41.90;;;;;;5135987;27;20023;-33
2024/02/07 09:18:21;;;;;;;3.25;2.47;;;21.60;41.80;;;;;;5129923;27;20046;-36
2024/02/07 09:20:48;;;;;;;3.58;2.80;;;21.70;41.90;;;;;;5140544;27;20064;-36
2024/02/07 09:23:15;;;;;;;4.75;2.92;;;21.70;41.80;;;;;;5135257;27;20105;-31
2024/02/07 09:25:41;;;;;;;4.38;2.80;;;21.60;41.80;;;;;;5135383;27;20626;-37
2024/02/07 09:28:07;;;;;;;3.92;3.10;;;21.60;41.80;;;;;;5144753;27;20035;-32
2024/02/07 09:30:34;;;;;;;3.20;2.70;;;21.60;41.90;;;;;;5136808;27;20023;-35
2024/02/07 09:33:00;;;;;;;;;;;21.60;41.80;;;;;;5132921;27;20071;-30
2024/02/07 09:35:27;;;;;;;3.63;3.00;;;21.60;41.80;;;;;;5127977;27;19911;-36
2024/02/07 09:37:53;;;;;;;3.42;2.58;;;21.70;41.70;;;;;;5136140;27;20032;-37
2024/02/07 09:40:20;;;;;;;3.17;2.40;;;21.60;41.70;;;;;;5136541;27;20042;-32
2024/02/07 09:42:46;;;;;;;3.83;3.00;;;21.60;41.80;;;;;;5127756;27;20042;-35
2024/02/07 09:45:13;;;;;;;3.92;2.80;;;21.60;41.80;;;;;;5120981;27;20052;-33
2024/02/07 09:47:49;;;;;;;3.55;2.72;;;21.60;41.80;;;;;;5135972;27;20031;-37
2024/02/07 09:50:16;;;;;;;3.95;2.58;;;21.60;41.70;;;;;;5118835;27;20028;-35
2024/02/07 09:52:42;;;;;;;3.53;2.72;;;21.60;41.60;;;;;;5123155;27;20043;-32
2024/02/07 09:55:08;;;;;;;3.17;2.23;;;21.60;41.60;;;;;;5116033;27;20027;-36
2024/02/07 09:57:35;;;;;;;3.17;2.25;;;21.60;41.60;;;;;;5119398;27;20036;-34
2024/02/07 10:00:01;;;;;;;4.40;2.83;;;21.50;41.60;;;;;;5137990;27;20011;-37
2024/02/07 10:02:27;;;;;;;2.90;2.60;;;21.60;41.70;;;;;;5140452;27;20069;-36
2024/02/07 10:04:54;;;;;;;4.13;2.67;;;21.60;41.60;;;;;;5135264;27;20033;-35
2024/02/07 10:07:20;;;;;;;3.97;3.17;;;21.60;41.60;;;;;;5114847;27;20053;-36
2024/02/07 10:09:49;;;;;;;3.65;2.60;;;21.60;41.60;;;;;;5139884;27;20271;-34
2024/02/07 10:12:16;;;;;;;3.72;2.65;;;21.60;41.80;;;;;;5126663;27;20040;-33
2024/02/07 10:14:43;;;;;;;3.90;2.80;;;21.50;41.70;;;;;;5131837;27;20018;-32
2024/02/07 10:17:09;;;;;;;5.18;2.92;;;21.60;41.70;;;;;;5135353;27;20040;-35
2024/02/07 10:19:35;;;;;;;3.15;2.40;;;21.60;41.60;;;;;;5132870;27;20125;-32
2024/02/07 10:22:14;;;;;;;4.15;2.70;;;21.60;41.50;;;;;;5131927;27;20029;-32
2024/02/07 10:24:40;;;;;;;4.57;2.72;;;21.60;41.50;;;;;;5138151;27;20026;-32
2024/02/07 10:27:06;;;;;;;3.42;2.67;;;21.50;41.60;;;;;;5115847;27;20035;-36
2024/02/07 10:29:32;;;;;;;3.40;2.50;;;21.50;41.70;;;;;;5139551;27;20038;-33
2024/02/07 10:31:59;;;;;;;3.45;2.60;;;21.50;41.60;;;;;;5136373;27;20035;-33
2024/02/07 10:34:25;;;;;;;3.65;2.80;;;21.60;41.60;;;;;;5135007;27;20491;-36
2024/02/07 10:37:00;;;;;;;3.60;2.58;;;21.60;41.50;;;;;;5116196;27;20031;-36
2024/02/07 10:39:27;;;;;;;3.72;2.75;;;21.60;41.50;;;;;;5113310;27;20031;-30
2024/02/07 10:41:57;;;;;;;3.58;2.70;;;21.50;41.50;;;;;;5128582;27;20038;-33
2024/02/07 10:44:24;;;;;;;2.80;2.50;;;21.50;41.50;;;;;;5130638;27;20059;-34
2024/02/07 10:46:58;;;;;;;4.50;2.90;;;21.50;41.60;;;;;;5136134;27;20023;-35
2024/02/07 10:49:25;;;;;;;3.65;2.70;;;21.60;41.40;;;;;;5134249;27;20031;-35
2024/02/07 10:51:51;;;;;;;3.80;2.85;;;21.60;41.40;;;;;;5110866;27;20042;-33
2024/02/07 10:54:17;;;;;;;3.30;2.25;;;21.60;41.40;;;;;;5128417;28;20054;-37
2024/02/07 10:56:43;;;;;;;3.95;2.78;;;21.50;41.40;;;;;;5130162;28;20034;-40
2024/02/07 10:59:09;;;;;;;3.35;2.63;;;21.50;41.40;;;;;;5134252;27;20027;-31
2024/02/07 11:01:35;;;;;;;3.92;2.55;;;21.60;41.50;;;;;;5143800;27;20030;-36
2024/02/07 11:04:01;;;;;;;3.70;2.85;;;21.60;41.40;;;;;;5117182;27;20023;-33
2024/02/07 11:06:28;;;;;;;3.85;2.78;;;21.60;41.30;;;;;;5134746;27;20091;-33
2024/02/07 11:08:58;;;;;;;4.20;2.75;;;21.60;41.30;;;;;;5135199;27;20038;-34
2024/02/07 11:11:25;;;;;;;3.90;2.78;;;21.50;41.40;;;;;;5113020;27;20027;-38
2024/02/07 11:13:57;;;;;;;3.95;2.67;;;21.50;41.40;;;;;;5133887;27;20058;-36
2024/02/07 11:16:23;;;;;;;3.17;2.45;;;21.50;41.40;;;;;;5134809;27;20087;-34
2024/02/07 11:18:50;;;;;;;4.40;2.83;;;21.60;41.30;;;;;;5133100;27;20042;-31
2024/02/07 11:21:26;;;;;;;3.10;2.80;;;21.60;41.20;;;;;;5136594;27;20032;-34
2024/02/07 11:23:53;;;;;;;3.58;2.85;;;21.60;41.20;;;;;;5118222;27;20030;-36
2024/02/07 11:26:19;;;;;;;3.40;2.72;;;21.50;41.30;;;;;;5135744;27;20039;-35
2024/02/07 11:28:46;;;;;;;3.10;2.80;;;21.50;41.30;;;;;;5124417;27;20035;-32
2024/02/07 11:31:13;;;;;;;3.10;2.47;;;21.50;41.30;;;;;;5139562;27;20031;-34
2024/02/07 11:33:40;;;;;;;2.65;2.40;;;21.60;41.30;;;;;;5137112;27;20076;-31
2024/02/07 11:36:16;;;;;;;2.90;2.60;;;21.60;41.20;;;;;;5114669;27;20027;-33
2024/02/07 11:38:55;;;;;;;3.75;2.72;;;21.50;41.20;;;;;;5134357;27;20027;-34
2024/02/07 11:41:21;;;;;;;3.20;2.55;;;21.50;41.30;;;;;;5139499;27;20098;-35
2024/02/07 11:43:55;;;;;;;3.25;2.70;;;21.50;41.30;;;;;;5137638;27;20031;-35
2024/02/07 11:46:22;;;;;;;4.18;2.40;;;21.50;41.30;;;;;;5137150;27;20034;-37
2024/02/07 11:48:52;;;;;;;3.63;2.40;;;21.50;41.30;;;;;;5137715;27;20823;-34
2024/02/07 11:51:20;;;;;;;2.97;2.67;;;21.50;41.20;;;;;;5133779;27;20035;-36
2024/02/07 11:53:46;;;;;;;3.03;2.65;;;21.50;41.20;;;;;;5138308;27;20377;-37
2024/02/07 11:56:14;;;;;;;3.25;2.80;;;21.50;41.20;;;;;;5134863;27;20086;-39
2024/02/07 11:58:40;;;;;;;3.00;2.70;;;21.50;41.20;;;;;;5113502;27;20032;-35
2024/02/07 12:01:10;;;;;;;3.67;2.83;;;21.50;41.20;;;;;;5129545;27;20023;-36
2024/02/07 12:03:40;;;;;;;3.90;2.80;;;21.50;41.20;;;;;;5135113;27;20050;-36
2024/02/07 12:06:12;;;;;;;3.28;2.58;;;21.50;41.20;;;;;;5134280;27;20027;-35
2024/02/07 12:08:38;;;;;;;3.30;2.60;;;21.50;41.10;;;;;;5120427;27;20031;-34
2024/02/07 12:11:05;;;;;;;3.08;2.45;;;21.50;41.20;;;;;;5138500;27;20607;-36
2024/02/07 12:13:35;;;;;;;3.10;2.50;;;21.50;41.20;;;;;;5114595;27;20066;-31
2024/02/07 12:16:01;;;;;;;3.17;2.35;;;21.50;41.20;;;;;;5138417;27;20472;-34
2024/02/07 12:18:28;;;;;;;2.45;2.10;;;21.50;41.20;;;;;;5135754;27;20023;-33
2024/02/07 12:21:00;;;;;;;3.30;2.63;;;21.50;41.10;;;;;;5135128;27;20042;-33
2024/02/07 12:23:26;;;;;;;3.70;2.42;;;21.50;41.20;;;;;;5151099;27;20083;-34
2024/02/07 12:25:59;;;;;;;3.10;2.30;;;21.50;41.10;;;;;;5141297;27;20047;-34
2024/02/07 12:28:28;;;;;;;11.63;2.60;;;21.50;41.20;;;;;;5133481;27;20049;-34
2024/02/07 12:30:55;;;;;;;4.65;2.45;;;21.50;41.40;;;;;;5129443;27;20038;-33
2024/02/07 12:33:22;;;;;;;4.72;2.33;;;21.50;41.40;;;;;;5131400;27;20028;-33
2024/02/07 12:35:52;;;;;;;;;;;21.50;41.30;;;;;;5136858;27;20015;-36
2024/02/07 12:38:18;;;;;;;4.43;2.30;;;21.50;41.30;;;;;;5109792;27;19919;-38
2024/02/07 12:40:54;;;;;;;2.63;2.27;;;21.50;41.40;;;;;;5138221;27;20069;-37
2024/02/07 12:43:27;;;;;;;3.17;2.45;;;21.40;41.30;;;;;;5110523;27;20279;-34
2024/02/07 12:46:01;;;;;;;2.83;2.40;;;21.50;41.40;;;;;;5129241;27;20043;-32
2024/02/07 12:48:27;;;;;;;2.88;2.25;;;21.50;41.20;;;;;;5133223;27;20035;-34
2024/02/07 12:50:53;;;;;;;2.47;2.17;;;21.50;41.20;;;;;;5140605;27;20031;-33
2024/02/07 12:53:20;;;;;;;2.67;2.08;;;21.60;41.20;;;;;;5113651;27;20047;-35
2024/02/07 12:55:48;;;;;;;3.47;2.40;;;21.50;41.30;;;;;;5128490;27;20026;-36
2024/02/07 12:58:14;;;;;;;2.80;2.10;;;21.40;41.20;;;;;;5136852;27;20138;-34
2024/02/07 13:00:40;;;;;;;3.40;2.25;;;21.50;41.20;;;;;;5131139;27;20091;-35
2024/02/07 13:03:07;;;;;;;2.42;1.92;;;21.50;41.20;;;;;;5128622;27;20034;-37
2024/02/07 13:05:34;;;;;;;2.30;2.08;;;21.50;41.10;;;;;;5115168;27;20035;-34
2024/02/07 13:08:00;;;;;;;3.70;2.00;;;21.50;41.10;;;;;;5135821;27;20039;-37
2024/02/07 13:10:26;;;;;;;3.13;2.25;;;21.50;41.20;;;;;;5137873;27;20387;-34
2024/02/07 13:12:52;;;;;;;2.83;1.92;;;21.40;41.20;;;;;;5135166;27;20046;-35
2024/02/07 13:15:19;;;;;;;2.85;1.67;;;21.50;41.30;;;;;;5140653;27;20026;-33
2024/02/07 13:17:46;;;;;;;2.70;2.00;;;21.50;41.30;;;;;;5130259;27;20106;-36
2024/02/07 13:20:13;;;;;;;2.08;1.70;;;21.50;41.10;;;;;;5136565;27;20038;-34
2024/02/07 13:22:39;;;;;;;2.55;2.00;;;21.50;41.10;;;;;;5128123;27;20031;-34
2024/02/07 13:25:09;;;;;;;3.47;1.73;;;21.50;41.10;;;;;;5136819;27;20053;-36
2024/02/07 13:27:37;;;;;;;2.33;2.03;;;21.50;41.30;;;;;;5126701;27;20038;-35
2024/02/07 13:30:04;;;;;;;2.55;1.90;;;21.50;41.20;;;;;;5132425;27;20038;-33
2024/02/07 13:32:31;;;;;;;2.60;2.00;;;21.50;41.20;;;;;;5130255;27;20046;-35
2024/02/07 13:34:57;;;;;;;2.27;2.00;;;21.50;41.10;;;;;;5113025;27;20060;-32
2024/02/07 13:37:23;;;;;;;4.53;2.10;;;21.50;41.00;;;;;;5134339;27;20362;-38
2024/02/07 13:39:49;;;;;;;2.22;1.80;;;21.50;41.00;;;;;;5136525;27;20156;-33
2024/02/07 13:42:15;;;;;;;2.28;1.75;;;21.50;41.10;;;;;;5134177;27;20023;-34
2024/02/07 13:44:41;;;;;;;2.13;1.70;;;21.50;41.70;;;;;;5132678;27;20484;-33
2024/02/07 13:47:09;;;;;;;2.25;2.00;;;21.50;41.20;;;;;;5136062;27;20023;-35
2024/02/07 13:49:35;;;;;;;4.78;1.92;;;21.50;41.10;;;;;;5133358;27;20029;-42
2024/02/07 13:52:02;;;;;;;5.73;2.00;;;21.60;41.60;;;;;;5129436;27;20044;-33